sensor_id;sensor_type;location;lat;lon;timestamp;P1;durP1;ratioP1;P2;durP2;ratioP2
14738;SDS011;7461;52.440;13.540;2023-01-06T00:01:04;4.93;;;2.95;;
14738;SDS011;7461;52.440;13.540;2023-01-06T00:03:34;4.18;;;2.15;;
14738;SDS011;7461;52.440;13.540;2023-01-06T00:06:04;2.38;;;2.13;;
14738;SDS011;7461;52.440;13.540;2023-01-06T00:08:32;4.38;;;3.10;;
14738;SDS011;7461;52.440;13.540;2023-01-06T00:11:03;3.38;;;2.33;;
14738;SDS011;7461;52.440;13.540;2023-01-06T00:13:30;3.28;;;2.47;;
14738;SDS011;7461;52.440;13.540;2023-01-06T00:16:01;3.20;;;2.45;;
14738;SDS011;7461;52.440;13.540;2023-01-06T00:18:29;3.05;;;2.75;;
14738;SDS011;7461;52.440;13.540;2023-01-06T00:20:58;5.25;;;2.72;;
14738;SDS011;7461;52.440;13.540;2023-01-06T00:23:25;4.07;;;2.88;;
14738;SDS011;7461;52.440;13.540;2023-01-06T00:25:53;3.72;;;3.38;;
14738;SDS011;7461;52.440;13.540;2023-01-06T00:28:20;3.15;;;2.42;;
14738;SDS011;7461;52.440;13.540;2023-01-06T00:30:47;3.53;;;2.92;;
14738;SDS011;7461;52.440;13.540;2023-01-06T00:33:14;4.97;;;2.90;;
14738;SDS011;7461;52.440;13.540;2023-01-06T00:35:43;5.35;;;3.40;;
14738;SDS011;7461;52.440;13.540;2023-01-06T00:38:11;3.17;;;2.97;;
14738;SDS011;7461;52.440;13.540;2023-01-06T00:40:38;5.40;;;3.13;;
14738;SDS011;7461;52.440;13.540;2023-01-06T00:43:06;3.20;;;2.90;;
14738;SDS011;7461;52.440;13.540;2023-01-06T00:45:33;2.88;;;2.63;;
14738;SDS011;7461;52.440;13.540;2023-01-06T00:48:00;6.43;;;3.42;;
14738;SDS011;7461;52.440;13.540;2023-01-06T00:50:28;4.55;;;2.55;;
14738;SDS011;7461;52.440;13.540;2023-01-06T00:52:55;4.15;;;2.08;;
14738;SDS011;7461;52.440;13.540;2023-01-06T00:55:23;5.57;;;2.20;;
14738;SDS011;7461;52.440;13.540;2023-01-06T00:57:51;4.40;;;2.72;;
14738;SDS011;7461;52.440;13.540;2023-01-06T01:00:18;2.65;;;2.00;;
14738;SDS011;7461;52.440;13.540;2023-01-06T01:02:48;5.20;;;2.67;;
14738;SDS011;7461;52.440;13.540;2023-01-06T01:05:16;3.65;;;2.47;;
14738;SDS011;7461;52.440;13.540;2023-01-06T01:07:43;4.72;;;2.30;;
14738;SDS011;7461;52.440;13.540;2023-01-06T01:10:10;3.33;;;2.60;;
14738;SDS011;7461;52.440;13.540;2023-01-06T01:12:39;2.65;;;2.45;;
14738;SDS011;7461;52.440;13.540;2023-01-06T01:15:06;4.10;;;2.63;;
14738;SDS011;7461;52.440;13.540;2023-01-06T01:17:34;5.90;;;3.00;;
14738;SDS011;7461;52.440;13.540;2023-01-06T01:20:01;4.53;;;2.90;;
14738;SDS011;7461;52.440;13.540;2023-01-06T01:22:29;4.60;;;2.58;;
14738;SDS011;7461;52.440;13.540;2023-01-06T01:24:56;4.68;;;3.80;;
14738;SDS011;7461;52.440;13.540;2023-01-06T01:27:23;5.47;;;3.92;;
14738;SDS011;7461;52.440;13.540;2023-01-06T01:29:52;3.85;;;3.03;;
14738;SDS011;7461;52.440;13.540;2023-01-06T01:32:19;4.10;;;2.75;;
14738;SDS011;7461;52.440;13.540;2023-01-06T01:34:46;4.57;;;2.63;;
14738;SDS011;7461;52.440;13.540;2023-01-06T01:37:14;2.47;;;1.90;;
14738;SDS011;7461;52.440;13.540;2023-01-06T01:39:41;3.72;;;2.63;;
14738;SDS011;7461;52.440;13.540;2023-01-06T01:42:12;4.10;;;2.80;;
14738;SDS011;7461;52.440;13.540;2023-01-06T01:44:56;4.30;;;2.83;;
14738;SDS011;7461;52.440;13.540;2023-01-06T01:47:26;2.38;;;2.10;;
14738;SDS011;7461;52.440;13.540;2023-01-06T01:49:59;4.30;;;2.28;;
14738;SDS011;7461;52.440;13.540;2023-01-06T01:52:27;3.60;;;2.45;;
14738;SDS011;7461;52.440;13.540;2023-01-06T01:54:54;2.45;;;2.25;;
14738;SDS011;7461;52.440;13.540;2023-01-06T01:57:24;2.60;;;2.08;;
14738;SDS011;7461;52.440;13.540;2023-01-06T01:59:52;5.38;;;3.13;;
14738;SDS011;7461;52.440;13.540;2023-01-06T02:02:21;3.05;;;1.83;;
14738;SDS011;7461;52.440;13.540;2023-01-06T02:04:50;2.55;;;2.13;;
14738;SDS011;7461;52.440;13.540;2023-01-06T02:07:19;4.35;;;2.92;;
14738;SDS011;7461;52.440;13.540;2023-01-06T02:09:49;4.35;;;1.90;;
14738;SDS011;7461;52.440;13.540;2023-01-06T02:12:18;3.30;;;2.38;;
14738;SDS011;7461;52.440;13.540;2023-01-06T02:14:46;2.33;;;1.98;;
14738;SDS011;7461;52.440;13.540;2023-01-06T02:17:19;1.73;;;1.63;;
14738;SDS011;7461;52.440;13.540;2023-01-06T02:28:22;2.10;;;1.55;;
14738;SDS011;7461;52.440;13.540;2023-01-06T02:31:10;3.15;;;2.50;;
14738;SDS011;7461;52.440;13.540;2023-01-06T02:33:37;5.40;;;3.03;;
14738;SDS011;7461;52.440;13.540;2023-01-06T02:36:10;4.05;;;2.45;;
14738;SDS011;7461;52.440;13.540;2023-01-06T02:38:45;4.00;;;2.15;;
14738;SDS011;7461;52.440;13.540;2023-01-06T02:41:21;3.85;;;1.77;;
14738;SDS011;7461;52.440;13.540;2023-01-06T02:43:54;3.20;;;2.92;;
14738;SDS011;7461;52.440;13.540;2023-01-06T02:46:33;4.93;;;2.75;;
14738;SDS011;7461;52.440;13.540;2023-01-06T02:49:07;8.23;;;3.10;;
14738;SDS011;7461;52.440;13.540;2023-01-06T02:51:41;2.33;;;2.15;;
14738;SDS011;7461;52.440;13.540;2023-01-06T02:54:13;2.85;;;2.42;;
14738;SDS011;7461;52.440;13.540;2023-01-06T02:56:43;2.40;;;1.90;;
14738;SDS011;7461;52.440;13.540;2023-01-06T02:59:13;5.07;;;2.72;;
14738;SDS011;7461;52.440;13.540;2023-01-06T03:01:45;3.00;;;2.58;;
14738;SDS011;7461;52.440;13.540;2023-01-06T03:04:15;4.07;;;2.90;;
14738;SDS011;7461;52.440;13.540;2023-01-06T03:06:44;6.65;;;2.65;;
14738;SDS011;7461;52.440;13.540;2023-01-06T03:09:12;2.25;;;2.03;;
14738;SDS011;7461;52.440;13.540;2023-01-06T03:11:40;4.85;;;2.22;;
14738;SDS011;7461;52.440;13.540;2023-01-06T03:14:11;3.25;;;1.65;;
14738;SDS011;7461;52.440;13.540;2023-01-06T03:16:40;2.80;;;1.90;;
14738;SDS011;7461;52.440;13.540;2023-01-06T03:19:08;4.05;;;2.60;;
14738;SDS011;7461;52.440;13.540;2023-01-06T03:21:36;2.92;;;1.80;;
14738;SDS011;7461;52.440;13.540;2023-01-06T03:24:05;5.30;;;2.17;;
14738;SDS011;7461;52.440;13.540;2023-01-06T03:26:33;6.78;;;1.98;;
14738;SDS011;7461;52.440;13.540;2023-01-06T03:29:01;3.55;;;2.05;;
14738;SDS011;7461;52.440;13.540;2023-01-06T03:31:29;3.10;;;1.30;;
14738;SDS011;7461;52.440;13.540;2023-01-06T03:34:01;3.45;;;1.80;;
14738;SDS011;7461;52.440;13.540;2023-01-06T03:36:34;2.00;;;1.77;;
14738;SDS011;7461;52.440;13.540;2023-01-06T03:39:06;6.22;;;2.20;;
14738;SDS011;7461;52.440;13.540;2023-01-06T03:41:35;4.25;;;2.65;;
14738;SDS011;7461;52.440;13.540;2023-01-06T03:44:25;4.47;;;1.67;;
14738;SDS011;7461;52.440;13.540;2023-01-06T03:47:02;2.60;;;1.38;;
14738;SDS011;7461;52.440;13.540;2023-01-06T03:49:32;7.30;;;1.55;;
14738;SDS011;7461;52.440;13.540;2023-01-06T03:52:06;2.28;;;1.48;;
14738;SDS011;7461;52.440;13.540;2023-01-06T03:54:38;5.18;;;1.48;;
14738;SDS011;7461;52.440;13.540;2023-01-06T03:57:07;2.00;;;1.35;;
14738;SDS011;7461;52.440;13.540;2023-01-06T03:59:37;3.08;;;1.55;;
14738;SDS011;7461;52.440;13.540;2023-01-06T04:02:06;3.63;;;2.05;;
14738;SDS011;7461;52.440;13.540;2023-01-06T04:04:34;2.80;;;1.98;;
14738;SDS011;7461;52.440;13.540;2023-01-06T04:07:03;3.58;;;1.42;;
14738;SDS011;7461;52.440;13.540;2023-01-06T04:09:30;3.28;;;2.30;;
14738;SDS011;7461;52.440;13.540;2023-01-06T04:11:58;5.53;;;2.15;;
14738;SDS011;7461;52.440;13.540;2023-01-06T04:14:42;3.25;;;1.42;;
14738;SDS011;7461;52.440;13.540;2023-01-06T04:17:09;5.32;;;1.60;;
14738;SDS011;7461;52.440;13.540;2023-01-06T04:19:36;2.13;;;1.42;;
14738;SDS011;7461;52.440;13.540;2023-01-06T04:22:05;3.75;;;1.58;;
14738;SDS011;7461;52.440;13.540;2023-01-06T04:24:32;1.45;;;1.35;;
14738;SDS011;7461;52.440;13.540;2023-01-06T04:27:03;2.63;;;2.40;;
14738;SDS011;7461;52.440;13.540;2023-01-06T04:29:30;3.58;;;1.20;;
14738;SDS011;7461;52.440;13.540;2023-01-06T04:31:57;2.05;;;1.83;;
14738;SDS011;7461;52.440;13.540;2023-01-06T04:34:24;5.57;;;1.92;;
14738;SDS011;7461;52.440;13.540;2023-01-06T04:36:52;1.30;;;1.17;;
14738;SDS011;7461;52.440;13.540;2023-01-06T04:39:20;1.77;;;0.90;;
14738;SDS011;7461;52.440;13.540;2023-01-06T04:41:47;2.00;;;1.27;;
14738;SDS011;7461;52.440;13.540;2023-01-06T04:44:14;3.80;;;2.08;;
14738;SDS011;7461;52.440;13.540;2023-01-06T04:46:42;2.15;;;1.45;;
14738;SDS011;7461;52.440;13.540;2023-01-06T04:49:09;1.63;;;0.85;;
14738;SDS011;7461;52.440;13.540;2023-01-06T04:51:36;1.77;;;1.08;;
14738;SDS011;7461;52.440;13.540;2023-01-06T04:54:03;1.45;;;1.35;;
14738;SDS011;7461;52.440;13.540;2023-01-06T04:56:32;2.10;;;1.23;;
14738;SDS011;7461;52.440;13.540;2023-01-06T04:58:59;2.95;;;1.52;;
14738;SDS011;7461;52.440;13.540;2023-01-06T05:01:26;4.13;;;2.75;;
14738;SDS011;7461;52.440;13.540;2023-01-06T05:03:54;1.10;;;0.70;;
14738;SDS011;7461;52.440;13.540;2023-01-06T05:06:21;6.38;;;2.60;;
14738;SDS011;7461;52.440;13.540;2023-01-06T05:08:48;1.85;;;1.20;;
14738;SDS011;7461;52.440;13.540;2023-01-06T05:11:16;2.15;;;1.77;;
14738;SDS011;7461;52.440;13.540;2023-01-06T05:13:44;2.65;;;1.52;;
14738;SDS011;7461;52.440;13.540;2023-01-06T05:16:13;3.00;;;1.77;;
14738;SDS011;7461;52.440;13.540;2023-01-06T05:18:41;1.67;;;1.58;;
14738;SDS011;7461;52.440;13.540;2023-01-06T05:21:08;3.40;;;3.10;;
14738;SDS011;7461;52.440;13.540;2023-01-06T05:23:36;2.80;;;2.20;;
14738;SDS011;7461;52.440;13.540;2023-01-06T05:26:03;2.70;;;2.00;;
14738;SDS011;7461;52.440;13.540;2023-01-06T05:28:31;3.70;;;2.17;;
14738;SDS011;7461;52.440;13.540;2023-01-06T05:31:00;7.05;;;1.90;;
14738;SDS011;7461;52.440;13.540;2023-01-06T05:33:27;3.10;;;1.90;;
14738;SDS011;7461;52.440;13.540;2023-01-06T05:35:58;5.10;;;2.03;;
14738;SDS011;7461;52.440;13.540;2023-01-06T05:38:25;2.60;;;2.28;;
14738;SDS011;7461;52.440;13.540;2023-01-06T05:40:52;4.22;;;2.22;;
14738;SDS011;7461;52.440;13.540;2023-01-06T05:43:20;2.38;;;2.17;;
14738;SDS011;7461;52.440;13.540;2023-01-06T05:45:48;3.20;;;1.52;;
14738;SDS011;7461;52.440;13.540;2023-01-06T05:48:16;3.72;;;2.38;;
14738;SDS011;7461;52.440;13.540;2023-01-06T05:50:44;3.17;;;1.85;;
14738;SDS011;7461;52.440;13.540;2023-01-06T05:53:11;1.70;;;1.58;;
14738;SDS011;7461;52.440;13.540;2023-01-06T05:55:38;2.72;;;2.17;;
14738;SDS011;7461;52.440;13.540;2023-01-06T05:58:05;2.40;;;1.75;;
14738;SDS011;7461;52.440;13.540;2023-01-06T06:00:32;5.55;;;3.13;;
14738;SDS011;7461;52.440;13.540;2023-01-06T06:02:59;3.47;;;2.25;;
14738;SDS011;7461;52.440;13.540;2023-01-06T06:05:28;3.33;;;1.77;;
14738;SDS011;7461;52.440;13.540;2023-01-06T06:07:55;6.03;;;2.15;;
14738;SDS011;7461;52.440;13.540;2023-01-06T06:10:22;4.07;;;2.53;;
14738;SDS011;7461;52.440;13.540;2023-01-06T06:12:53;3.85;;;2.33;;
14738;SDS011;7461;52.440;13.540;2023-01-06T06:15:20;3.50;;;2.97;;
14738;SDS011;7461;52.440;13.540;2023-01-06T06:17:47;8.93;;;2.30;;
14738;SDS011;7461;52.440;13.540;2023-01-06T06:20:14;3.28;;;2.97;;
14738;SDS011;7461;52.440;13.540;2023-01-06T06:22:43;3.47;;;3.03;;
14738;SDS011;7461;52.440;13.540;2023-01-06T06:25:10;4.70;;;2.72;;
14738;SDS011;7461;52.440;13.540;2023-01-06T06:27:37;4.65;;;4.22;;
14738;SDS011;7461;52.440;13.540;2023-01-06T06:30:07;6.00;;;2.78;;
14738;SDS011;7461;52.440;13.540;2023-01-06T06:32:34;2.63;;;2.45;;
14738;SDS011;7461;52.440;13.540;2023-01-06T06:35:01;3.58;;;2.35;;
14738;SDS011;7461;52.440;13.540;2023-01-06T06:37:28;3.30;;;2.53;;
14738;SDS011;7461;52.440;13.540;2023-01-06T06:39:57;3.22;;;3.03;;
14738;SDS011;7461;52.440;13.540;2023-01-06T06:42:24;3.13;;;2.83;;
14738;SDS011;7461;52.440;13.540;2023-01-06T06:44:51;5.43;;;3.00;;
14738;SDS011;7461;52.440;13.540;2023-01-06T06:47:19;5.00;;;2.35;;
14738;SDS011;7461;52.440;13.540;2023-01-06T06:49:46;6.65;;;2.97;;
14738;SDS011;7461;52.440;13.540;2023-01-06T06:52:15;3.58;;;2.90;;
14738;SDS011;7461;52.440;13.540;2023-01-06T06:54:42;3.53;;;3.15;;
14738;SDS011;7461;52.440;13.540;2023-01-06T06:57:11;3.60;;;2.78;;
14738;SDS011;7461;52.440;13.540;2023-01-06T06:59:38;8.02;;;3.22;;
14738;SDS011;7461;52.440;13.540;2023-01-06T07:02:05;4.10;;;3.80;;
14738;SDS011;7461;52.440;13.540;2023-01-06T07:04:32;7.50;;;5.78;;
14738;SDS011;7461;52.440;13.540;2023-01-06T07:06:59;8.77;;;4.90;;
14738;SDS011;7461;52.440;13.540;2023-01-06T07:09:27;5.32;;;4.93;;
14738;SDS011;7461;52.440;13.540;2023-01-06T07:11:54;6.82;;;5.55;;
14738;SDS011;7461;52.440;13.540;2023-01-06T07:14:22;5.93;;;5.38;;
14738;SDS011;7461;52.440;13.540;2023-01-06T07:16:50;5.78;;;5.10;;
14738;SDS011;7461;52.440;13.540;2023-01-06T07:19:17;8.40;;;5.80;;
14738;SDS011;7461;52.440;13.540;2023-01-06T07:21:44;6.25;;;4.80;;
14738;SDS011;7461;52.440;13.540;2023-01-06T07:24:11;5.32;;;4.82;;
14738;SDS011;7461;52.440;13.540;2023-01-06T07:26:38;7.88;;;5.60;;
14738;SDS011;7461;52.440;13.540;2023-01-06T07:29:06;9.93;;;5.40;;
14738;SDS011;7461;52.440;13.540;2023-01-06T07:31:34;9.20;;;4.80;;
14738;SDS011;7461;52.440;13.540;2023-01-06T07:34:01;6.43;;;5.25;;
14738;SDS011;7461;52.440;13.540;2023-01-06T07:36:28;6.97;;;5.50;;
14738;SDS011;7461;52.440;13.540;2023-01-06T07:38:56;7.82;;;5.43;;
14738;SDS011;7461;52.440;13.540;2023-01-06T07:41:23;6.25;;;5.85;;
14738;SDS011;7461;52.440;13.540;2023-01-06T07:43:50;5.20;;;4.80;;
14738;SDS011;7461;52.440;13.540;2023-01-06T07:46:17;8.50;;;4.45;;
14738;SDS011;7461;52.440;13.540;2023-01-06T07:48:46;5.60;;;4.45;;
14738;SDS011;7461;52.440;13.540;2023-01-06T07:51:13;5.28;;;4.90;;
14738;SDS011;7461;52.440;13.540;2023-01-06T07:53:40;7.88;;;6.18;;
14738;SDS011;7461;52.440;13.540;2023-01-06T07:56:07;6.38;;;5.78;;
14738;SDS011;7461;52.440;13.540;2023-01-06T07:58:35;7.32;;;5.32;;
14738;SDS011;7461;52.440;13.540;2023-01-06T08:01:03;6.63;;;5.63;;
14738;SDS011;7461;52.440;13.540;2023-01-06T08:03:31;5.13;;;4.72;;
14738;SDS011;7461;52.440;13.540;2023-01-06T08:06:04;6.88;;;6.28;;
14738;SDS011;7461;52.440;13.540;2023-01-06T08:08:31;6.80;;;6.18;;
14738;SDS011;7461;52.440;13.540;2023-01-06T08:11:01;7.45;;;6.63;;
14738;SDS011;7461;52.440;13.540;2023-01-06T08:13:28;6.45;;;5.85;;
14738;SDS011;7461;52.440;13.540;2023-01-06T08:15:55;8.40;;;6.22;;
14738;SDS011;7461;52.440;13.540;2023-01-06T08:18:22;6.55;;;5.93;;
14738;SDS011;7461;52.440;13.540;2023-01-06T08:20:49;8.82;;;7.25;;
14738;SDS011;7461;52.440;13.540;2023-01-06T08:23:18;7.78;;;5.95;;
14738;SDS011;7461;52.440;13.540;2023-01-06T08:25:45;7.93;;;7.32;;
14738;SDS011;7461;52.440;13.540;2023-01-06T08:28:12;7.82;;;7.13;;
14738;SDS011;7461;52.440;13.540;2023-01-06T08:30:41;7.93;;;7.07;;
14738;SDS011;7461;52.440;13.540;2023-01-06T08:33:08;9.68;;;8.70;;
14738;SDS011;7461;52.440;13.540;2023-01-06T08:35:35;10.60;;;9.65;;
14738;SDS011;7461;52.440;13.540;2023-01-06T08:38:02;12.68;;;8.35;;
14738;SDS011;7461;52.440;13.540;2023-01-06T08:40:31;8.68;;;7.07;;
14738;SDS011;7461;52.440;13.540;2023-01-06T08:42:58;9.73;;;8.65;;
14738;SDS011;7461;52.440;13.540;2023-01-06T08:45:25;10.80;;;9.85;;
14738;SDS011;7461;52.440;13.540;2023-01-06T08:47:52;10.48;;;8.75;;
14738;SDS011;7461;52.440;13.540;2023-01-06T08:50:20;10.70;;;9.90;;
14738;SDS011;7461;52.440;13.540;2023-01-06T08:52:47;10.60;;;9.65;;
14738;SDS011;7461;52.440;13.540;2023-01-06T08:55:14;12.35;;;10.63;;
14738;SDS011;7461;52.440;13.540;2023-01-06T08:57:42;11.82;;;10.63;;
14738;SDS011;7461;52.440;13.540;2023-01-06T09:00:10;21.55;;;11.75;;
14738;SDS011;7461;52.440;13.540;2023-01-06T09:02:37;14.20;;;12.48;;
14738;SDS011;7461;52.440;13.540;2023-01-06T09:05:05;12.63;;;10.95;;
14738;SDS011;7461;52.440;13.540;2023-01-06T09:07:32;16.10;;;14.45;;
14738;SDS011;7461;52.440;13.540;2023-01-06T09:09:59;15.60;;;11.02;;
14738;SDS011;7461;52.440;13.540;2023-01-06T09:12:27;14.75;;;13.02;;
14738;SDS011;7461;52.440;13.540;2023-01-06T09:14:55;13.02;;;11.73;;
14738;SDS011;7461;52.440;13.540;2023-01-06T09:17:22;15.20;;;13.13;;
14738;SDS011;7461;52.440;13.540;2023-01-06T09:19:50;14.15;;;12.70;;
14738;SDS011;7461;52.440;13.540;2023-01-06T09:22:17;11.25;;;10.38;;
14738;SDS011;7461;52.440;13.540;2023-01-06T09:24:44;14.13;;;12.10;;
14738;SDS011;7461;52.440;13.540;2023-01-06T09:27:11;13.38;;;11.98;;
14738;SDS011;7461;52.440;13.540;2023-01-06T09:29:38;12.23;;;11.00;;
14738;SDS011;7461;52.440;13.540;2023-01-06T09:32:07;11.55;;;10.18;;
14738;SDS011;7461;52.440;13.540;2023-01-06T09:34:34;12.90;;;11.77;;
14738;SDS011;7461;52.440;13.540;2023-01-06T09:37:03;15.55;;;13.98;;
14738;SDS011;7461;52.440;13.540;2023-01-06T09:39:30;12.00;;;11.00;;
14738;SDS011;7461;52.440;13.540;2023-01-06T09:44:41;14.70;;;13.50;;
14738;SDS011;7461;52.440;13.540;2023-01-06T09:47:12;13.88;;;12.45;;
14738;SDS011;7461;52.440;13.540;2023-01-06T09:49:43;12.80;;;11.73;;
14738;SDS011;7461;52.440;13.540;2023-01-06T09:52:14;14.60;;;12.68;;
14738;SDS011;7461;52.440;13.540;2023-01-06T09:54:45;14.50;;;13.20;;
14738;SDS011;7461;52.440;13.540;2023-01-06T09:57:14;13.60;;;12.52;;
14738;SDS011;7461;52.440;13.540;2023-01-06T09:59:44;14.23;;;12.93;;
14738;SDS011;7461;52.440;13.540;2023-01-06T10:02:14;15.60;;;14.00;;
14738;SDS011;7461;52.440;13.540;2023-01-06T10:04:44;14.15;;;12.93;;
14738;SDS011;7461;52.440;13.540;2023-01-06T10:07:12;16.00;;;14.38;;
14738;SDS011;7461;52.440;13.540;2023-01-06T10:09:43;13.90;;;12.68;;
14738;SDS011;7461;52.440;13.540;2023-01-06T10:12:16;14.27;;;13.27;;
14738;SDS011;7461;52.440;13.540;2023-01-06T10:14:50;14.02;;;12.82;;
14738;SDS011;7461;52.440;13.540;2023-01-06T10:17:23;15.32;;;14.02;;
14738;SDS011;7461;52.440;13.540;2023-01-06T10:19:55;17.45;;;15.73;;
14738;SDS011;7461;52.440;13.540;2023-01-06T10:22:25;15.68;;;14.02;;
14738;SDS011;7461;52.440;13.540;2023-01-06T10:24:55;15.98;;;14.77;;
14738;SDS011;7461;52.440;13.540;2023-01-06T10:27:26;17.27;;;15.82;;
14738;SDS011;7461;52.440;13.540;2023-01-06T10:29:54;16.75;;;15.52;;
14738;SDS011;7461;52.440;13.540;2023-01-06T10:32:23;14.90;;;13.60;;
14738;SDS011;7461;52.440;13.540;2023-01-06T10:34:52;15.70;;;14.23;;
14738;SDS011;7461;52.440;13.540;2023-01-06T10:37:21;14.88;;;13.77;;
14738;SDS011;7461;52.440;13.540;2023-01-06T10:39:50;15.02;;;14.00;;
14738;SDS011;7461;52.440;13.540;2023-01-06T10:42:21;15.95;;;14.75;;
14738;SDS011;7461;52.440;13.540;2023-01-06T10:45:12;15.07;;;13.88;;
14738;SDS011;7461;52.440;13.540;2023-01-06T10:47:41;15.98;;;14.32;;
14738;SDS011;7461;52.440;13.540;2023-01-06T10:50:11;16.15;;;14.75;;
14738;SDS011;7461;52.440;13.540;2023-01-06T10:52:38;15.43;;;14.15;;
14738;SDS011;7461;52.440;13.540;2023-01-06T10:55:05;13.75;;;12.50;;
14738;SDS011;7461;52.440;13.540;2023-01-06T10:57:34;15.35;;;14.05;;
14738;SDS011;7461;52.440;13.540;2023-01-06T11:00:09;15.40;;;14.20;;
14738;SDS011;7461;52.440;13.540;2023-01-06T11:02:41;13.63;;;12.40;;
14738;SDS011;7461;52.440;13.540;2023-01-06T11:05:12;14.43;;;13.38;;
14738;SDS011;7461;52.440;13.540;2023-01-06T11:07:47;15.48;;;14.02;;
14738;SDS011;7461;52.440;13.540;2023-01-06T11:10:21;14.35;;;13.25;;
14738;SDS011;7461;52.440;13.540;2023-01-06T11:12:49;14.38;;;13.10;;
14738;SDS011;7461;52.440;13.540;2023-01-06T11:15:18;14.23;;;12.93;;
14738;SDS011;7461;52.440;13.540;2023-01-06T11:17:47;14.00;;;13.00;;
14738;SDS011;7461;52.440;13.540;2023-01-06T11:20:26;14.07;;;12.82;;
14738;SDS011;7461;52.440;13.540;2023-01-06T11:22:54;15.77;;;14.40;;
14738;SDS011;7461;52.440;13.540;2023-01-06T11:25:22;13.45;;;12.30;;
14738;SDS011;7461;52.440;13.540;2023-01-06T11:30:37;13.40;;;12.30;;
14738;SDS011;7461;52.440;13.540;2023-01-06T11:33:13;13.55;;;12.38;;
14738;SDS011;7461;52.440;13.540;2023-01-06T11:35:40;12.20;;;11.30;;
14738;SDS011;7461;52.440;13.540;2023-01-06T11:38:09;12.57;;;11.57;;
14738;SDS011;7461;52.440;13.540;2023-01-06T11:40:38;11.93;;;10.77;;
14738;SDS011;7461;52.440;13.540;2023-01-06T11:43:07;12.90;;;11.77;;
14738;SDS011;7461;52.440;13.540;2023-01-06T11:45:36;11.38;;;10.27;;
14738;SDS011;7461;52.440;13.540;2023-01-06T11:48:04;11.85;;;10.88;;
14738;SDS011;7461;52.440;13.540;2023-01-06T11:50:33;13.13;;;12.07;;
14738;SDS011;7461;52.440;13.540;2023-01-06T11:53:01;12.82;;;11.65;;
14738;SDS011;7461;52.440;13.540;2023-01-06T11:55:29;13.00;;;12.15;;
14738;SDS011;7461;52.440;13.540;2023-01-06T11:57:57;11.45;;;10.55;;
14738;SDS011;7461;52.440;13.540;2023-01-06T12:00:40;11.75;;;11.02;;
14738;SDS011;7461;52.440;13.540;2023-01-06T12:03:13;11.23;;;10.30;;
14738;SDS011;7461;52.440;13.540;2023-01-06T12:05:45;11.77;;;10.60;;
14738;SDS011;7461;52.440;13.540;2023-01-06T12:08:14;11.20;;;10.13;;
14738;SDS011;7461;52.440;13.540;2023-01-06T12:10:44;10.50;;;9.70;;
14738;SDS011;7461;52.440;13.540;2023-01-06T12:13:12;11.70;;;10.80;;
14738;SDS011;7461;52.440;13.540;2023-01-06T12:15:40;11.10;;;10.20;;
14738;SDS011;7461;52.440;13.540;2023-01-06T12:18:10;11.25;;;10.35;;
14738;SDS011;7461;52.440;13.540;2023-01-06T12:20:39;12.60;;;11.60;;
14738;SDS011;7461;52.440;13.540;2023-01-06T12:23:09;12.90;;;11.90;;
14738;SDS011;7461;52.440;13.540;2023-01-06T12:25:38;10.98;;;10.15;;
14738;SDS011;7461;52.440;13.540;2023-01-06T12:28:08;12.25;;;11.25;;
14738;SDS011;7461;52.440;13.540;2023-01-06T12:30:41;10.95;;;10.05;;
14738;SDS011;7461;52.440;13.540;2023-01-06T12:33:11;13.25;;;11.85;;
14738;SDS011;7461;52.440;13.540;2023-01-06T12:35:39;13.00;;;11.90;;
14738;SDS011;7461;52.440;13.540;2023-01-06T12:38:10;13.07;;;11.95;;
14738;SDS011;7461;52.440;13.540;2023-01-06T12:40:41;13.68;;;12.48;;
14738;SDS011;7461;52.440;13.540;2023-01-06T12:43:11;12.02;;;11.13;;
14738;SDS011;7461;52.440;13.540;2023-01-06T12:45:41;11.23;;;10.35;;
14738;SDS011;7461;52.440;13.540;2023-01-06T12:48:14;11.13;;;10.43;;
14738;SDS011;7461;52.440;13.540;2023-01-06T12:50:44;10.98;;;10.00;;
14738;SDS011;7461;52.440;13.540;2023-01-06T12:53:14;10.13;;;9.23;;
14738;SDS011;7461;52.440;13.540;2023-01-06T12:55:45;10.82;;;9.75;;
14738;SDS011;7461;52.440;13.540;2023-01-06T12:58:16;10.10;;;9.30;;
14738;SDS011;7461;52.440;13.540;2023-01-06T13:00:49;8.57;;;7.90;;
14738;SDS011;7461;52.440;13.540;2023-01-06T13:03:23;9.82;;;8.88;;
14738;SDS011;7461;52.440;13.540;2023-01-06T13:05:53;8.30;;;7.60;;
14738;SDS011;7461;52.440;13.540;2023-01-06T13:08:28;7.95;;;7.32;;
14738;SDS011;7461;52.440;13.540;2023-01-06T13:11:05;11.63;;;8.27;;
14738;SDS011;7461;52.440;13.540;2023-01-06T13:13:39;7.30;;;6.70;;
14738;SDS011;7461;52.440;13.540;2023-01-06T13:16:11;6.20;;;5.65;;
14738;SDS011;7461;52.440;13.540;2023-01-06T13:18:40;6.82;;;6.32;;
14738;SDS011;7461;52.440;13.540;2023-01-06T13:21:09;6.95;;;6.28;;
14738;SDS011;7461;52.440;13.540;2023-01-06T13:23:50;6.85;;;6.45;;
14738;SDS011;7461;52.440;13.540;2023-01-06T13:26:27;6.40;;;5.80;;
14738;SDS011;7461;52.440;13.540;2023-01-06T13:28:58;5.28;;;4.90;;
14738;SDS011;7461;52.440;13.540;2023-01-06T13:31:39;5.72;;;5.00;;
14738;SDS011;7461;52.440;13.540;2023-01-06T13:34:24;4.47;;;4.07;;
14738;SDS011;7461;52.440;13.540;2023-01-06T13:39:45;6.25;;;5.68;;
14738;SDS011;7461;52.440;13.540;2023-01-06T13:42:14;5.05;;;4.32;;
14738;SDS011;7461;52.440;13.540;2023-01-06T13:44:42;5.60;;;5.05;;
14738;SDS011;7461;52.440;13.540;2023-01-06T13:47:11;4.82;;;4.43;;
14738;SDS011;7461;52.440;13.540;2023-01-06T13:49:39;6.72;;;5.78;;
14738;SDS011;7461;52.440;13.540;2023-01-06T13:52:07;3.72;;;3.42;;
14738;SDS011;7461;52.440;13.540;2023-01-06T13:55:04;3.60;;;3.40;;
14738;SDS011;7461;52.440;13.540;2023-01-06T13:57:33;4.18;;;3.85;;
14738;SDS011;7461;52.440;13.540;2023-01-06T14:05:55;2.97;;;2.72;;
14738;SDS011;7461;52.440;13.540;2023-01-06T14:08:25;2.97;;;2.78;;
14738;SDS011;7461;52.440;13.540;2023-01-06T14:11:04;3.03;;;2.83;;
14738;SDS011;7461;52.440;13.540;2023-01-06T14:13:33;3.30;;;3.00;;
14738;SDS011;7461;52.440;13.540;2023-01-06T14:16:02;2.65;;;2.45;;
14738;SDS011;7461;52.440;13.540;2023-01-06T14:18:30;2.65;;;2.35;;
14738;SDS011;7461;52.440;13.540;2023-01-06T14:21:00;2.55;;;1.92;;
14738;SDS011;7461;52.440;13.540;2023-01-06T14:23:28;3.00;;;2.13;;
14738;SDS011;7461;52.440;13.540;2023-01-06T14:25:55;2.28;;;2.08;;
14738;SDS011;7461;52.440;13.540;2023-01-06T14:28:28;1.45;;;1.45;;
14738;SDS011;7461;52.440;13.540;2023-01-06T14:33:56;1.42;;;1.40;;
14738;SDS011;7461;52.440;13.540;2023-01-06T14:36:25;2.35;;;1.75;;
14738;SDS011;7461;52.440;13.540;2023-01-06T14:38:53;1.88;;;1.73;;
14738;SDS011;7461;52.440;13.540;2023-01-06T14:41:24;1.88;;;1.77;;
14738;SDS011;7461;52.440;13.540;2023-01-06T14:43:54;1.80;;;1.70;;
14738;SDS011;7461;52.440;13.540;2023-01-06T14:46:24;2.25;;;1.95;;
14738;SDS011;7461;52.440;13.540;2023-01-06T14:48:53;1.92;;;1.83;;
14738;SDS011;7461;52.440;13.540;2023-01-06T14:51:21;2.35;;;1.42;;
14738;SDS011;7461;52.440;13.540;2023-01-06T14:53:51;2.30;;;2.10;;
14738;SDS011;7461;52.440;13.540;2023-01-06T14:56:21;2.20;;;2.05;;
14738;SDS011;7461;52.440;13.540;2023-01-06T14:58:49;2.17;;;2.05;;
14738;SDS011;7461;52.440;13.540;2023-01-06T15:01:22;1.65;;;1.55;;
14738;SDS011;7461;52.440;13.540;2023-01-06T15:03:53;1.58;;;1.48;;
14738;SDS011;7461;52.440;13.540;2023-01-06T15:06:22;1.65;;;1.55;;
14738;SDS011;7461;52.440;13.540;2023-01-06T15:08:49;2.42;;;1.77;;
14738;SDS011;7461;52.440;13.540;2023-01-06T15:11:19;2.33;;;2.22;;
14738;SDS011;7461;52.440;13.540;2023-01-06T15:13:47;1.67;;;1.58;;
14738;SDS011;7461;52.440;13.540;2023-01-06T15:16:17;1.90;;;1.80;;
14738;SDS011;7461;52.440;13.540;2023-01-06T15:18:46;3.05;;;2.63;;